sensor_id;sensor_type;location;lat;lon;timestamp;pressure;altitude;pressure_sealevel;temperature;humidity
10668;BME280;5382;42.136;24.796;2023-01-29T00:01:35;100099.47;;;4.04;100.00
10668;BME280;5382;42.136;24.796;2023-01-29T00:04:04;100097.03;;;4.00;100.00
10668;BME280;5382;42.136;24.796;2023-01-29T00:06:30;100086.31;;;4.06;100.00
10668;BME280;5382;42.136;24.796;2023-01-29T00:08:57;100090.56;;;4.08;100.00
10668;BME280;5382;42.136;24.796;2023-01-29T00:11:24;100090.72;;;4.05;100.00
10668;BME280;5382;42.136;24.796;2023-01-29T00:13:51;100084.69;;;4.03;100.00
10668;BME280;5382;42.136;24.796;2023-01-29T00:16:18;100102.88;;;4.06;100.00
10668;BME280;5382;42.136;24.796;2023-01-29T00:18:45;100097.13;;;4.19;100.00
10668;BME280;5382;42.136;24.796;2023-01-29T00:21:15;100107.00;;;4.12;100.00
10668;BME280;5382;42.136;24.796;2023-01-29T00:23:42;100103.22;;;4.19;100.00
10668;BME280;5382;42.136;24.796;2023-01-29T00:26:10;100080.47;;;3.99;100.00
10668;BME280;5382;42.136;24.796;2023-01-29T00:28:37;100076.81;;;4.03;100.00
10668;BME280;5382;42.136;24.796;2023-01-29T00:31:07;100104.19;;;4.17;100.00
10668;BME280;5382;42.136;24.796;2023-01-29T00:33:34;100111.31;;;4.13;100.00
10668;BME280;5382;42.136;24.796;2023-01-29T00:36:02;100122.44;;;4.18;100.00
10668;BME280;5382;42.136;24.796;2023-01-29T00:38:31;100132.19;;;4.14;100.00
10668;BME280;5382;42.136;24.796;2023-01-29T00:41:04;100122.38;;;4.20;100.00
10668;BME280;5382;42.136;24.796;2023-01-29T00:43:48;100120.13;;;4.10;100.00
10668;BME280;5382;42.136;24.796;2023-01-29T00:46:32;100135.97;;;4.07;100.00
10668;BME280;5382;42.136;24.796;2023-01-29T00:48:59;100124.78;;;4.04;100.00
10668;BME280;5382;42.136;24.796;2023-01-29T00:51:26;100121.25;;;4.05;100.00
10668;BME280;5382;42.136;24.796;2023-01-29T00:53:54;100127.47;;;4.02;100.00
10668;BME280;5382;42.136;24.796;2023-01-29T00:56:23;100124.78;;;4.04;100.00
10668;BME280;5382;42.136;24.796;2023-01-29T00:58:49;100121.06;;;4.09;100.00
10668;BME280;5382;42.136;24.796;2023-01-29T01:01:16;100118.84;;;4.00;100.00
10668;BME280;5382;42.136;24.796;2023-01-29T01:04:03;100121.50;;;3.99;100.00
10668;BME280;5382;42.136;24.796;2023-01-29T01:06:29;100116.31;;;3.97;100.00
10668;BME280;5382;42.136;24.796;2023-01-29T01:08:57;100118.84;;;4.00;100.00
10668;BME280;5382;42.136;24.796;2023-01-29T01:11:42;100112.47;;;3.85;100.00
10668;BME280;5382;42.136;24.796;2023-01-29T01:14:10;100127.31;;;3.85;100.00
10668;BME280;5382;42.136;24.796;2023-01-29T01:16:36;100121.03;;;3.89;100.00
10668;BME280;5382;42.136;24.796;2023-01-29T01:19:04;100134.13;;;3.89;100.00
10668;BME280;5382;42.136;24.796;2023-01-29T01:21:31;100130.47;;;3.93;100.00
10668;BME280;5382;42.136;24.796;2023-01-29T01:23:59;100139.34;;;3.89;100.00
10668;BME280;5382;42.136;24.796;2023-01-29T01:26:26;100128.56;;;3.97;100.00
10668;BME280;5382;42.136;24.796;2023-01-29T01:28:53;100121.66;;;3.96;100.00
10668;BME280;5382;42.136;24.796;2023-01-29T01:31:20;100125.09;;;3.96;100.00
10668;BME280;5382;42.136;24.796;2023-01-29T01:33:46;100139.31;;;3.90;100.00
10668;BME280;5382;42.136;24.796;2023-01-29T01:36:13;100128.72;;;3.93;100.00
10668;BME280;5382;42.136;24.796;2023-01-29T01:38:40;100126.03;;;3.95;100.00
10668;BME280;5382;42.136;24.796;2023-01-29T01:41:12;100132.00;;;3.99;100.00
10668;BME280;5382;42.136;24.796;2023-01-29T01:43:47;100126.75;;;3.99;100.00
10668;BME280;5382;42.136;24.796;2023-01-29T01:46:14;100131.13;;;3.98;100.00
10668;BME280;5382;42.136;24.796;2023-01-29T01:48:42;100131.28;;;3.95;100.00
10668;BME280;5382;42.136;24.796;2023-01-29T01:51:10;100123.47;;;3.93;100.00
10668;BME280;5382;42.136;24.796;2023-01-29T01:53:39;100085.59;;;3.60;100.00
10668;BME280;5382;42.136;24.796;2023-01-29T01:56:15;100129.94;;;3.85;100.00
10668;BME280;5382;42.136;24.796;2023-01-29T01:58:46;100127.19;;;3.88;100.00
10668;BME280;5382;42.136;24.796;2023-01-29T02:01:16;100133.16;;;3.91;100.00
10668;BME280;5382;42.136;24.796;2023-01-29T02:03:51;100123.13;;;3.81;100.00
10668;BME280;5382;42.136;24.796;2023-01-29T02:06:39;100136.91;;;3.84;100.00
10668;BME280;5382;42.136;24.796;2023-01-29T02:09:26;100132.34;;;3.89;100.00
10668;BME280;5382;42.136;24.796;2023-01-29T02:12:04;100130.34;;;3.96;100.00
10668;BME280;5382;42.136;24.796;2023-01-29T02:14:33;100138.56;;;3.87;100.00
10668;BME280;5382;42.136;24.796;2023-01-29T02:17:03;100137.59;;;3.89;100.00
10668;BME280;5382;42.136;24.796;2023-01-29T02:19:40;100147.06;;;3.92;100.00
10668;BME280;5382;42.136;24.796;2023-01-29T02:22:26;100141.75;;;3.95;100.00
10668;BME280;5382;42.136;24.796;2023-01-29T02:28:05;100131.81;;;4.03;100.00
10668;BME280;5382;42.136;24.796;2023-01-29T02:30:40;100142.06;;;4.08;100.00
10668;BME280;5382;42.136;24.796;2023-01-29T02:33:16;100134.59;;;3.99;100.00
10668;BME280;5382;42.136;24.796;2023-01-29T02:35:55;100161.31;;;4.07;100.00
10668;BME280;5382;42.136;24.796;2023-01-29T02:38:34;100156.69;;;4.13;100.00
10668;BME280;5382;42.136;24.796;2023-01-29T02:41:09;100154.91;;;4.14;100.00
10668;BME280;5382;42.136;24.796;2023-01-29T02:43:44;100154.97;;;4.12;100.00
10668;BME280;5382;42.136;24.796;2023-01-29T02:46:16;100159.50;;;4.09;100.00
10668;BME280;5382;42.136;24.796;2023-01-29T02:48:53;100159.53;;;4.07;100.00
10668;BME280;5382;42.136;24.796;2023-01-29T02:51:25;100154.19;;;4.10;100.00
10668;BME280;5382;42.136;24.796;2023-01-29T02:53:57;100160.34;;;4.09;100.00
10668;BME280;5382;42.136;24.796;2023-01-29T02:56:30;100165.72;;;4.06;100.00
10668;BME280;5382;42.136;24.796;2023-01-29T02:59:06;100135.94;;;3.87;100.00
10668;BME280;5382;42.136;24.796;2023-01-29T03:01:39;100163.41;;;3.99;100.00
10668;BME280;5382;42.136;24.796;2023-01-29T03:04:10;100152.75;;;4.03;100.00
10668;BME280;5382;42.136;24.796;2023-01-29T03:06:41;100148.81;;;3.93;100.00
10668;BME280;5382;42.136;24.796;2023-01-29T03:09:11;100159.84;;;4.00;100.00
10668;BME280;5382;42.136;24.796;2023-01-29T03:11:46;100144.91;;;4.03;100.00
10668;BME280;5382;42.136;24.796;2023-01-29T03:14:19;100177.81;;;4.09;100.00
10668;BME280;5382;42.136;24.796;2023-01-29T03:16:49;100169.66;;;4.17;100.00
10668;BME280;5382;42.136;24.796;2023-01-29T03:19:19;100174.50;;;4.05;100.00
10668;BME280;5382;42.136;24.796;2023-01-29T03:21:47;100184.97;;;4.05;100.00
10668;BME280;5382;42.136;24.796;2023-01-29T03:24:17;100155.84;;;3.91;100.00
10668;BME280;5382;42.136;24.796;2023-01-29T03:27:06;100180.75;;;4.01;100.00
10668;BME280;5382;42.136;24.796;2023-01-29T03:29:53;100185.19;;;3.99;100.00
10668;BME280;5382;42.136;24.796;2023-01-29T03:32:38;100197.25;;;4.03;100.00
10668;BME280;5382;42.136;24.796;2023-01-29T03:35:07;100181.41;;;4.06;100.00
10668;BME280;5382;42.136;24.796;2023-01-29T03:37:39;100194.69;;;4.02;100.00
10668;BME280;5382;42.136;24.796;2023-01-29T03:40:09;100196.50;;;4.00;100.00
10668;BME280;5382;42.136;24.796;2023-01-29T03:42:49;100154.66;;;3.78;100.00
10668;BME280;5382;42.136;24.796;2023-01-29T03:45:28;100182.84;;;3.93;100.00
10668;BME280;5382;42.136;24.796;2023-01-29T03:48:04;100210.56;;;3.97;100.00
10668;BME280;5382;42.136;24.796;2023-01-29T03:50:36;100184.91;;;3.85;100.00
10668;BME280;5382;42.136;24.796;2023-01-29T03:53:13;100202.34;;;3.84;100.00
10668;BME280;5382;42.136;24.796;2023-01-29T03:55:49;100200.53;;;3.86;100.00
10668;BME280;5382;42.136;24.796;2023-01-29T03:58:24;100211.84;;;3.87;100.00
10668;BME280;5382;42.136;24.796;2023-01-29T04:00:59;100206.56;;;3.88;100.00
10668;BME280;5382;42.136;24.796;2023-01-29T04:03:31;100206.41;;;3.93;100.00
10668;BME280;5382;42.136;24.796;2023-01-29T04:06:05;100201.38;;;3.87;100.00
10668;BME280;5382;42.136;24.796;2023-01-29T04:08:39;100226.78;;;3.85;100.00
10668;BME280;5382;42.136;24.796;2023-01-29T04:11:12;100206.81;;;3.82;100.00
10668;BME280;5382;42.136;24.796;2023-01-29T04:13:39;100214.53;;;3.85;100.00
10668;BME280;5382;42.136;24.796;2023-01-29T04:16:13;100229.69;;;3.77;100.00
10668;BME280;5382;42.136;24.796;2023-01-29T04:18:44;100235.41;;;3.65;100.00
10668;BME280;5382;42.136;24.796;2023-01-29T04:21:12;100227.38;;;3.69;100.00
10668;BME280;5382;42.136;24.796;2023-01-29T04:23:39;100236.97;;;3.69;100.00
10668;BME280;5382;42.136;24.796;2023-01-29T04:26:23;100234.13;;;3.75;100.00
10668;BME280;5382;42.136;24.796;2023-01-29T04:29:06;100244.94;;;3.66;100.00
10668;BME280;5382;42.136;24.796;2023-01-29T04:31:41;100234.56;;;3.64;100.00
10668;BME280;5382;42.136;24.796;2023-01-29T04:34:16;100240.75;;;3.62;100.00
10668;BME280;5382;42.136;24.796;2023-01-29T04:36:58;100235.44;;;3.63;100.00
10668;BME280;5382;42.136;24.796;2023-01-29T04:39:31;100237.94;;;3.66;100.00
10668;BME280;5382;42.136;24.796;2023-01-29T04:42:05;100233.66;;;3.64;100.00
10668;BME280;5382;42.136;24.796;2023-01-29T04:44:39;100252.34;;;3.55;100.00
10668;BME280;5382;42.136;24.796;2023-01-29T04:47:18;100248.81;;;3.56;100.00
10668;BME280;5382;42.136;24.796;2023-01-29T04:49:52;100250.69;;;3.52;100.00
10668;BME280;5382;42.136;24.796;2023-01-29T04:52:31;100236.13;;;3.45;100.00
10668;BME280;5382;42.136;24.796;2023-01-29T04:55:04;100253.44;;;3.49;100.00
10668;BME280;5382;42.136;24.796;2023-01-29T04:57:34;100252.28;;;3.33;100.00
10668;BME280;5382;42.136;24.796;2023-01-29T05:00:07;100238.84;;;3.18;100.00
10668;BME280;5382;42.136;24.796;2023-01-29T05:02:42;100250.53;;;3.33;100.00
10668;BME280;5382;42.136;24.796;2023-01-29T05:05:11;100257.22;;;3.40;100.00
10668;BME280;5382;42.136;24.796;2023-01-29T05:07:41;100257.72;;;3.26;100.00
10668;BME280;5382;42.136;24.796;2023-01-29T05:10:10;100268.19;;;3.26;100.00
10668;BME280;5382;42.136;24.796;2023-01-29T05:12:37;100259.22;;;3.34;100.00
10668;BME280;5382;42.136;24.796;2023-01-29T05:15:09;100277.53;;;3.34;100.00
10668;BME280;5382;42.136;24.796;2023-01-29T05:17:41;100275.25;;;3.24;100.00
10668;BME280;5382;42.136;24.796;2023-01-29T05:20:10;100268.03;;;3.31;100.00
10668;BME280;5382;42.136;24.796;2023-01-29T05:22:38;100264.94;;;3.20;100.00
10668;BME280;5382;42.136;24.796;2023-01-29T05:25:19;100259.25;;;3.09;100.00
10668;BME280;5382;42.136;24.796;2023-01-29T05:27:48;100274.53;;;3.19;100.00
10668;BME280;5382;42.136;24.796;2023-01-29T05:30:30;100276.16;;;3.23;100.00
10668;BME280;5382;42.136;24.796;2023-01-29T05:32:58;100275.34;;;3.21;100.00
10668;BME280;5382;42.136;24.796;2023-01-29T05:35:25;100281.28;;;3.26;100.00
10668;BME280;5382;42.136;24.796;2023-01-29T05:37:53;100273.28;;;3.31;100.00
10668;BME280;5382;42.136;24.796;2023-01-29T05:40:22;100285.97;;;3.42;100.00
10668;BME280;5382;42.136;24.796;2023-01-29T05:42:49;100280.84;;;3.39;100.00
10668;BME280;5382;42.136;24.796;2023-01-29T05:45:16;100283.06;;;3.49;100.00
10668;BME280;5382;42.136;24.796;2023-01-29T05:47:43;100288.97;;;3.55;100.00
10668;BME280;5382;42.136;24.796;2023-01-29T05:50:12;100297.34;;;3.64;100.00
10668;BME280;5382;42.136;24.796;2023-01-29T05:52:39;100289.91;;;3.77;100.00
10668;BME280;5382;42.136;24.796;2023-01-29T05:55:07;100296.94;;;3.75;100.00
10668;BME280;5382;42.136;24.796;2023-01-29T05:57:34;100301.09;;;3.81;100.00
10668;BME280;5382;42.136;24.796;2023-01-29T06:00:03;100298.03;;;3.69;100.00
10668;BME280;5382;42.136;24.796;2023-01-29T06:02:30;100305.69;;;3.74;100.00
10668;BME280;5382;42.136;24.796;2023-01-29T06:04:57;100297.28;;;3.66;100.00
10668;BME280;5382;42.136;24.796;2023-01-29T06:07:25;100313.63;;;3.72;100.00
10668;BME280;5382;42.136;24.796;2023-01-29T06:09:52;100322.28;;;3.75;100.00
10668;BME280;5382;42.136;24.796;2023-01-29T06:12:18;100300.69;;;3.68;100.00
10668;BME280;5382;42.136;24.796;2023-01-29T06:14:45;100326.25;;;3.85;100.00
10668;BME280;5382;42.136;24.796;2023-01-29T06:17:12;100324.66;;;3.81;100.00
10668;BME280;5382;42.136;24.796;2023-01-29T06:19:39;100310.75;;;3.79;100.00
10668;BME280;5382;42.136;24.796;2023-01-29T06:22:05;100314.19;;;3.81;100.00
10668;BME280;5382;42.136;24.796;2023-01-29T06:24:35;100324.66;;;3.81;100.00
10668;BME280;5382;42.136;24.796;2023-01-29T06:27:02;100329.19;;;3.76;100.00
10668;BME280;5382;42.136;24.796;2023-01-29T06:29:29;100329.88;;;3.81;100.00
10668;BME280;5382;42.136;24.796;2023-01-29T06:31:55;100344.22;;;3.70;100.00
10668;BME280;5382;42.136;24.796;2023-01-29T06:34:22;100340.88;;;3.67;100.00
10668;BME280;5382;42.136;24.796;2023-01-29T06:36:50;100350.25;;;3.72;100.00
10668;BME280;5382;42.136;24.796;2023-01-29T06:39:17;100340.53;;;3.76;100.00
10668;BME280;5382;42.136;24.796;2023-01-29T06:41:45;100358.78;;;3.78;100.00
10668;BME280;5382;42.136;24.796;2023-01-29T06:44:12;100355.09;;;3.83;100.00
10668;BME280;5382;42.136;24.796;2023-01-29T06:46:39;100334.66;;;3.69;100.00
10668;BME280;5382;42.136;24.796;2023-01-29T06:49:05;100355.81;;;3.87;100.00
10668;BME280;5382;42.136;24.796;2023-01-29T06:51:32;100354.09;;;3.87;100.00
10668;BME280;5382;42.136;24.796;2023-01-29T06:53:59;100374.06;;;3.90;100.00
10668;BME280;5382;42.136;24.796;2023-01-29T06:56:26;100360.16;;;3.88;100.00
10668;BME280;5382;42.136;24.796;2023-01-29T06:58:54;100370.41;;;3.94;100.00
10668;BME280;5382;42.136;24.796;2023-01-29T07:01:21;100380.06;;;3.92;100.00
10668;BME280;5382;42.136;24.796;2023-01-29T07:03:48;100371.22;;;3.96;100.00
10668;BME280;5382;42.136;24.796;2023-01-29T07:06:15;100368.63;;;3.94;100.00
10668;BME280;5382;42.136;24.796;2023-01-29T07:08:42;100379.78;;;4.00;100.00
10668;BME280;5382;42.136;24.796;2023-01-29T07:11:09;100350.13;;;3.99;100.00
10668;BME280;5382;42.136;24.796;2023-01-29T07:13:36;100377.66;;;4.11;100.00
10668;BME280;5382;42.136;24.796;2023-01-29T07:16:04;100379.16;;;4.17;100.00
10668;BME280;5382;42.136;24.796;2023-01-29T07:18:31;100361.13;;;4.09;100.00
10668;BME280;5382;42.136;24.796;2023-01-29T07:21:03;100384.75;;;4.07;100.00
10668;BME280;5382;42.136;24.796;2023-01-29T07:23:30;100373.38;;;4.08;100.00
10668;BME280;5382;42.136;24.796;2023-01-29T07:25:59;100367.38;;;4.05;100.00
10668;BME280;5382;42.136;24.796;2023-01-29T07:28:26;100388.31;;;4.28;100.00
10668;BME280;5382;42.136;24.796;2023-01-29T07:30:55;100371.25;;;4.18;100.00
10668;BME280;5382;42.136;24.796;2023-01-29T07:33:23;100379.09;;;4.18;100.00
10668;BME280;5382;42.136;24.796;2023-01-29T07:35:50;100372.69;;;4.27;100.00
10668;BME280;5382;42.136;24.796;2023-01-29T07:38:17;100386.31;;;4.35;100.00
10668;BME280;5382;42.136;24.796;2023-01-29T07:40:44;100362.63;;;4.38;100.00
10668;BME280;5382;42.136;24.796;2023-01-29T07:43:11;100384.50;;;4.37;100.00
10668;BME280;5382;42.136;24.796;2023-01-29T07:45:38;100387.81;;;4.42;100.00
10668;BME280;5382;42.136;24.796;2023-01-29T07:48:08;100388.53;;;4.46;100.00
10668;BME280;5382;42.136;24.796;2023-01-29T07:50:38;100408.53;;;4.48;100.00
10668;BME280;5382;42.136;24.796;2023-01-29T07:53:05;100383.41;;;4.43;100.00
10668;BME280;5382;42.136;24.796;2023-01-29T07:55:32;100388.53;;;4.46;100.00
10668;BME280;5382;42.136;24.796;2023-01-29T07:58:00;100399.09;;;4.66;100.00
10668;BME280;5382;42.136;24.796;2023-01-29T08:00:28;100385.47;;;4.56;100.00
10668;BME280;5382;42.136;24.796;2023-01-29T08:03:01;100403.22;;;4.72;100.00
10668;BME280;5382;42.136;24.796;2023-01-29T08:05:28;100411.94;;;4.72;100.00
10668;BME280;5382;42.136;24.796;2023-01-29T08:07:56;100407.63;;;4.71;100.00
10668;BME280;5382;42.136;24.796;2023-01-29T08:10:23;100409.28;;;4.74;100.00
10668;BME280;5382;42.136;24.796;2023-01-29T08:12:53;100412.91;;;4.70;100.00
10668;BME280;5382;42.136;24.796;2023-01-29T08:15:20;100402.94;;;4.57;100.00
10668;BME280;5382;42.136;24.796;2023-01-29T08:17:47;100402.25;;;4.52;100.00
10668;BME280;5382;42.136;24.796;2023-01-29T08:20:14;100385.19;;;4.42;100.00
10668;BME280;5382;42.136;24.796;2023-01-29T08:22:41;100402.69;;;4.64;100.00
10668;BME280;5382;42.136;24.796;2023-01-29T08:25:09;100415.53;;;4.70;100.00
10668;BME280;5382;42.136;24.796;2023-01-29T08:27:36;100414.81;;;4.66;100.00
10668;BME280;5382;42.136;24.796;2023-01-29T08:30:04;100408.84;;;4.63;100.00
10668;BME280;5382;42.136;24.796;2023-01-29T08:32:31;100418.16;;;4.70;100.00
10668;BME280;5382;42.136;24.796;2023-01-29T08:34:58;100405.13;;;4.68;100.00
10668;BME280;5382;42.136;24.796;2023-01-29T08:37:25;100408.34;;;4.75;100.00
10668;BME280;5382;42.136;24.796;2023-01-29T08:39:52;100416.69;;;4.85;100.00
10668;BME280;5382;42.136;24.796;2023-01-29T08:42:20;100423.59;;;4.87;100.00
10668;BME280;5382;42.136;24.796;2023-01-29T08:44:47;100425.78;;;4.98;100.00
10668;BME280;5382;42.136;24.796;2023-01-29T08:47:13;100416.75;;;5.05;100.00
10668;BME280;5382;42.136;24.796;2023-01-29T08:49:40;100424.03;;;4.98;100.00
10668;BME280;5382;42.136;24.796;2023-01-29T08:52:07;100434.53;;;4.98;100.00
10668;BME280;5382;42.136;24.796;2023-01-29T08:54:34;100425.41;;;4.85;100.00
10668;BME280;5382;42.136;24.796;2023-01-29T08:57:00;100410.78;;;4.79;100.00
10668;BME280;5382;42.136;24.796;2023-01-29T08:59:29;100425.13;;;4.93;100.00
10668;BME280;5382;42.136;24.796;2023-01-29T09:01:55;100441.53;;;4.76;100.00
10668;BME280;5382;42.136;24.796;2023-01-29T09:04:22;100423.72;;;4.84;100.00
10668;BME280;5382;42.136;24.796;2023-01-29T09:06:49;100431.63;;;4.82;100.00
10668;BME280;5382;42.136;24.796;2023-01-29T09:09:16;100437.09;;;4.78;100.00
10668;BME280;5382;42.136;24.796;2023-01-29T09:11:43;100403.59;;;4.63;100.00
10668;BME280;5382;42.136;24.796;2023-01-29T09:14:10;100425.41;;;4.85;100.00
10668;BME280;5382;42.136;24.796;2023-01-29T09:16:40;100418.91;;;4.73;100.00
10668;BME280;5382;42.136;24.796;2023-01-29T09:19:07;100423.97;;;4.78;100.00
10668;BME280;5382;42.136;24.796;2023-01-29T09:21:34;100434.69;;;4.72;100.00
10668;BME280;5382;42.136;24.796;2023-01-29T09:24:01;100426.59;;;4.78;100.00
10668;BME280;5382;42.136;24.796;2023-01-29T09:26:27;100425.63;;;4.80;100.00
10668;BME280;5382;42.136;24.796;2023-01-29T09:28:55;100430.56;;;4.88;100.00
10668;BME280;5382;42.136;24.796;2023-01-29T09:31:21;100421.91;;;4.86;100.00
10668;BME280;5382;42.136;24.796;2023-01-29T09:33:50;100389.91;;;4.78;100.00
10668;BME280;5382;42.136;24.796;2023-01-29T09:36:16;100416.41;;;4.92;100.00
10668;BME280;5382;42.136;24.796;2023-01-29T09:38:43;100415.84;;;4.84;100.00
10668;BME280;5382;42.136;24.796;2023-01-29T09:41:23;100413.41;;;5.01;100.00
10668;BME280;5382;42.136;24.796;2023-01-29T09:43:57;100402.75;;;5.06;100.00
10668;BME280;5382;42.136;24.796;2023-01-29T09:46:32;100414.97;;;5.06;100.00
10668;BME280;5382;42.136;24.796;2023-01-29T09:49:06;100409.47;;;4.91;100.00
10668;BME280;5382;42.136;24.796;2023-01-29T09:51:40;100402.63;;;4.87;100.00
10668;BME280;5382;42.136;24.796;2023-01-29T09:54:15;100413.94;;;4.88;100.00
10668;BME280;5382;42.136;24.796;2023-01-29T09:56:44;100402.31;;;4.95;100.00
10668;BME280;5382;42.136;24.796;2023-01-29T09:59:12;100400.00;;;5.09;100.00
10668;BME280;5382;42.136;24.796;2023-01-29T10:01:44;100389.84;;;5.22;100.00
10668;BME280;5382;42.136;24.796;2023-01-29T10:04:41;100394.97;;;5.25;100.00
10668;BME280;5382;42.136;24.796;2023-01-29T10:07:25;100395.63;;;5.30;100.00
10668;BME280;5382;42.136;24.796;2023-01-29T10:10:10;100405.78;;;5.38;100.00
10668;BME280;5382;42.136;24.796;2023-01-29T10:12:52;100387.63;;;5.33;100.00
10668;BME280;5382;42.136;24.796;2023-01-29T10:15:32;100378.28;;;5.26;100.00
10668;BME280;5382;42.136;24.796;2023-01-29T10:21:03;100394.13;;;5.24;100.00
10668;BME280;5382;42.136;24.796;2023-01-29T10:23:38;100388.25;;;5.18;100.00
10668;BME280;5382;42.136;24.796;2023-01-29T10:26:10;100379.69;;;5.35;100.00
10668;BME280;5382;42.136;24.796;2023-01-29T10:28:40;100378.09;;;5.31;100.00
10668;BME280;5382;42.136;24.796;2023-01-29T10:31:14;100363.38;;;5.47;100.00
10668;BME280;5382;42.136;24.796;2023-01-29T10:33:47;100367.75;;;5.48;100.00
10668;BME280;5382;42.136;24.796;2023-01-29T10:36:19;100357.81;;;5.55;100.00
10668;BME280;5382;42.136;24.796;2023-01-29T10:38:49;100357.44;;;5.83;100.00
10668;BME280;5382;42.136;24.796;2023-01-29T10:41:25;100353.09;;;6.02;100.00
10668;BME280;5382;42.136;24.796;2023-01-29T10:44:04;100351.75;;;6.13;100.00
10668;BME280;5382;42.136;24.796;2023-01-29T10:46:44;100364.41;;;6.23;100.00
10668;BME280;5382;42.136;24.796;2023-01-29T10:49:26;100333.16;;;6.17;100.00
10668;BME280;5382;42.136;24.796;2023-01-29T10:52:08;100354.88;;;6.40;100.00
10668;BME280;5382;42.136;24.796;2023-01-29T10:54:55;100345.63;;;6.50;100.00
10668;BME280;5382;42.136;24.796;2023-01-29T10:57:40;100346.72;;;6.46;100.00
10668;BME280;5382;42.136;24.796;2023-01-29T11:00:16;100339.44;;;6.32;100.00
10668;BME280;5382;42.136;24.796;2023-01-29T11:02:46;100340.94;;;6.57;100.00
10668;BME280;5382;42.136;24.796;2023-01-29T11:05:20;100341.69;;;6.95;100.00
10668;BME280;5382;42.136;24.796;2023-01-29T11:08:05;100333.38;;;7.37;100.00
10668;BME280;5382;42.136;24.796;2023-01-29T11:10:39;100331.72;;;7.70;100.00
10668;BME280;5382;42.136;24.796;2023-01-29T11:13:10;100346.97;;;7.63;100.00
10668;BME280;5382;42.136;24.796;2023-01-29T11:15:39;100333.03;;;7.61;100.00
10668;BME280;5382;42.136;24.796;2023-01-29T11:18:07;100338.31;;;8.10;100.00
10668;BME280;5382;42.136;24.796;2023-01-29T11:20:39;100325.34;;;7.90;100.00
10668;BME280;5382;42.136;24.796;2023-01-29T11:23:23;100342.66;;;7.62;100.00
10668;BME280;5382;42.136;24.796;2023-01-29T11:25:51;100304.03;;;7.45;100.00
10668;BME280;5382;42.136;24.796;2023-01-29T11:28:35;100299.00;;;7.40;100.00
10668;BME280;5382;42.136;24.796;2023-01-29T11:31:02;100299.31;;;7.52;100.00
10668;BME280;5382;42.136;24.796;2023-01-29T11:33:29;100303.34;;;7.75;100.00
10668;BME280;5382;42.136;24.796;2023-01-29T11:35:56;100302.41;;;7.76;100.00
10668;BME280;5382;42.136;24.796;2023-01-29T11:38:26;100306.88;;;7.58;100.00
10668;BME280;5382;42.136;24.796;2023-01-29T11:41:03;100296.69;;;7.68;100.00
10668;BME280;5382;42.136;24.796;2023-01-29T11:43:31;100306.16;;;7.88;100.00
10668;BME280;5382;42.136;24.796;2023-01-29T11:46:00;100285.56;;;7.62;100.00
10668;BME280;5382;42.136;24.796;2023-01-29T11:48:42;100300.50;;;7.62;100.00
10668;BME280;5382;42.136;24.796;2023-01-29T11:51:11;100291.34;;;7.69;100.00
10668;BME280;5382;42.136;24.796;2023-01-29T11:53:50;100285.59;;;7.94;100.00
10668;BME280;5382;42.136;24.796;2023-01-29T11:56:21;100289.50;;;8.35;100.00
10668;BME280;5382;42.136;24.796;2023-01-29T11:58:50;100291.13;;;8.53;100.00
10668;BME280;5382;42.136;24.796;2023-01-29T12:01:29;100271.66;;;8.86;100.00
10668;BME280;5382;42.136;24.796;2023-01-29T12:03:57;100271.34;;;9.21;100.00
10668;BME280;5382;42.136;24.796;2023-01-29T12:06:31;100289.16;;;9.17;100.00
10668;BME280;5382;42.136;24.796;2023-01-29T12:09:02;100272.91;;;8.94;100.00
10668;BME280;5382;42.136;24.796;2023-01-29T12:11:34;100281.19;;;9.03;100.00
10668;BME280;5382;42.136;24.796;2023-01-29T12:14:03;100272.25;;;8.75;100.00
10668;BME280;5382;42.136;24.796;2023-01-29T12:16:32;100267.22;;;8.56;100.00
10668;BME280;5382;42.136;24.796;2023-01-29T12:19:09;100259.47;;;8.37;100.00
10668;BME280;5382;42.136;24.796;2023-01-29T12:21:43;100239.03;;;8.11;100.00
10668;BME280;5382;42.136;24.796;2023-01-29T12:24:24;100262.81;;;8.25;100.00
10668;BME280;5382;42.136;24.796;2023-01-29T12:27:03;100267.47;;;8.20;100.00
10668;BME280;5382;42.136;24.796;2023-01-29T12:29:39;100266.69;;;8.34;100.00
10668;BME280;5382;42.136;24.796;2023-01-29T12:32:15;100236.78;;;8.50;100.00
10668;BME280;5382;42.136;24.796;2023-01-29T12:34:49;100260.00;;;8.60;100.00
10668;BME280;5382;42.136;24.796;2023-01-29T12:37:20;100219.81;;;8.08;100.00
10668;BME280;5382;42.136;24.796;2023-01-29T12:39:51;100246.16;;;7.93;100.00
10668;BME280;5382;42.136;24.796;2023-01-29T12:42:19;100249.97;;;7.71;100.00
10668;BME280;5382;42.136;24.796;2023-01-29T12:44:51;100243.19;;;7.83;100.00
10668;BME280;5382;42.136;24.796;2023-01-29T12:47:21;100245.28;;;7.76;100.00
10668;BME280;5382;42.136;24.796;2023-01-29T12:49:52;100228.81;;;7.73;100.00
10668;BME280;5382;42.136;24.796;2023-01-29T12:52:26;100253.91;;;7.80;100.00
10668;BME280;5382;42.136;24.796;2023-01-29T12:55:02;100247.56;;;7.67;100.00
10668;BME280;5382;42.136;24.796;2023-01-29T12:57:38;100258.84;;;7.53;100.00
10668;BME280;5382;42.136;24.796;2023-01-29T13:00:12;100261.72;;;7.48;100.00
10668;BME280;5382;42.136;24.796;2023-01-29T13:02:45;100256.13;;;7.38;100.00
10668;BME280;5382;42.136;24.796;2023-01-29T13:05:19;100264.03;;;7.38;100.00
10668;BME280;5382;42.136;24.796;2023-01-29T13:07:52;100253.56;;;7.37;100.00
10668;BME280;5382;42.136;24.796;2023-01-29T13:10:26;100248.16;;;7.22;100.00
10668;BME280;5382;42.136;24.796;2023-01-29T13:12:57;100252.97;;;7.14;100.00
10668;BME280;5382;42.136;24.796;2023-01-29T13:15:28;100260.97;;;7.13;100.00
10668;BME280;5382;42.136;24.796;2023-01-29T13:18:01;100265.44;;;7.11;100.00